Portada
METAR-TAF:

METAR-TAF

Aeropuertos :

Orange, Francia

latitud: 44-08N, longitud: 004-50E, altitud: 60 m

Observación

El informe se hizo hace 28 minutos, a las 18:00 UTC
Viento 22 kt del norte con ráfagas de 34 kt
Temperatura 24°C
Humedad 38%
Presión 1019 hPa
Visibilidad 10 km o más
sin nubes por debajo de 1500 m y sin presencia de cumulonimbus.

METAR: LFMO 261800Z AUTO 36022G34KT CAVOK 24/09 Q1019 NOSIG

Hora: 20:28 (18:28 UTC)

Pronóstico

El informe se hizo hace 4 horas y 28 minutos, a las 14:00 UTC
Pronóstico válido del 26 a las 15 UTC al 27 a las 15 UTC
Viento 20 kt del norte con ráfagas de 30 kt
Visibilidad 10 km o más
sin nubes por debajo de 1500 m y sin presencia de cumulonimbus.
Evolucionando progresivamente
del 27 a las 12 UTC al 27 a las 15 UTC
Viento 20 kt del norte con ráfagas de 40 kt

TAF: LFMO 261400Z 2615/2715 35020G30KT CAVOK TX30/2715Z TN18/2703Z BECMG 2712/2715 35020G40KT

Observaciones y pronósticos meteorológicos de más de 4000 aeropuertos (mensajes METAR y TAF).

Los puntos amarillos y rojos representan las estaciones disponibles.

Ponga el ratón en el punto deseado para ver el nombre de la estación.

Haga clic para ver las observaciones y los pronósticos meteorológicos.

Para cambiar el mapa : haga clic en los botones verdes con una cruz de color negro para hacer un zoom, en el botón verde con un guión para alejar o en las flechas verdes para mapas adyacentes.


METAR-TAF: